Time;durP1;ratioP1;P1;durP2;ratioP2;P2;SDS_P1;SDS_P2;PMS_P1;PMS_P2;Temp;Humidity;BMP_temperature;BMP_pressure;BME280_temperature;BME280_humidity;BME280_pressure;Samples;Min_cycle;Max_cycle;Signal;HPM_P1;HPM_P2
2023/09/05 00:02:15;;;;;;;10.23;4.90;;;;;;;;;;5031998;28;20048;-67
2023/09/05 00:04:42;;;;;;;9.43;5.10;;;;;;;;;;5031725;28;20061;-67
2023/09/05 00:07:08;;;;;;;7.68;4.93;;;;;;;;;;5033008;28;20029;-67
2023/09/05 00:09:33;;;;;;;8.90;5.30;;;;;;;;;;5032044;28;20398;-67
2023/09/05 00:11:58;;;;;;;9.60;5.63;;;;;;;;;;5031672;28;20109;-67
2023/09/05 00:14:23;;;;;;;8.20;5.10;;;;;;;;;;5032119;28;20036;-67
2023/09/05 00:16:49;;;;;;;10.43;5.53;;;;;;;;;;5031984;28;20041;-67
2023/09/05 00:19:15;;;;;;;9.43;6.40;;;;;;;;;;5032095;28;20025;-67
2023/09/05 00:21:40;;;;;;;11.75;6.25;;;;;;;;;;5031350;28;20458;-67
2023/09/05 00:24:25;;;;;;;11.10;6.38;;;;;;;;;;5032113;28;20032;-67
2023/09/05 00:26:50;;;;;;;8.80;6.07;;;;;;;;;;5031665;28;20026;-67
2023/09/05 00:29:19;;;;;;;10.43;5.68;;;;;;;;;;5031175;28;20025;-66
2023/09/05 00:31:44;;;;;;;9.13;5.75;;;;;;;;;;5031540;28;20037;-67
2023/09/05 00:34:09;;;;;;;9.98;5.38;;;;;;;;;;5031988;28;20025;-67
2023/09/05 00:36:34;;;;;;;10.05;6.05;;;;;;;;;;5031726;28;20041;-67
2023/09/05 00:39:02;;;;;;;11.20;6.00;;;;;;;;;;5032565;28;20025;-67
2023/09/05 00:41:28;;;;;;;10.43;6.28;;;;;;;;;;5032927;28;20508;-67
2023/09/05 00:43:53;;;;;;;9.57;5.57;;;;;;;;;;5031655;28;20017;-67
2023/09/05 00:46:19;;;;;;;11.73;6.25;;;;;;;;;;5031372;28;20083;-66
2023/09/05 00:48:44;;;;;;;17.58;6.13;;;;;;;;;;5031854;28;20037;-67
2023/09/05 00:51:09;;;;;;;12.80;6.13;;;;;;;;;;5031644;28;20033;-67
2023/09/05 00:53:35;;;;;;;9.32;5.78;;;;;;;;;;5031694;28;20033;-67
2023/09/05 00:56:00;;;;;;;8.57;5.90;;;;;;;;;;5031376;28;20021;-67
2023/09/05 00:58:25;;;;;;;18.33;6.30;;;;;;;;;;5035269;28;20025;-66
2023/09/05 01:03:55;;;;;;;7.38;5.28;;;;;;;;;;5029831;28;20045;-67
2023/09/05 01:06:22;;;;;;;9.15;5.03;;;;;;;;;;5035306;28;20454;-67
2023/09/05 01:08:52;;;;;;;9.13;5.50;;;;;;;;;;5039601;28;20072;-67
2023/09/05 01:11:18;;;;;;;9.57;5.50;;;;;;;;;;5035509;28;20057;-67
2023/09/05 01:13:43;;;;;;;9.25;5.65;;;;;;;;;;5035323;28;20057;-67
2023/09/05 01:16:09;;;;;;;9.27;5.28;;;;;;;;;;5035472;28;20025;-66
2023/09/05 01:18:34;;;;;;;11.25;5.50;;;;;;;;;;5035383;28;20116;-67
2023/09/05 01:21:06;;;;;;;9.00;6.32;;;;;;;;;;5037561;28;20029;-67
2023/09/05 01:23:31;;;;;;;;;;;;;;;;;;5032491;28;20026;-67
2023/09/05 01:25:57;;;;;;;8.70;5.00;;;;;;;;;;5035884;28;19975;-67
2023/09/05 01:28:23;;;;;;;8.35;5.20;;;;;;;;;;5035222;28;20488;-67
2023/09/05 01:30:48;;;;;;;9.77;5.70;;;;;;;;;;5035267;28;20029;-67
2023/09/05 01:33:14;;;;;;;10.35;5.78;;;;;;;;;;5037053;28;20021;-67
2023/09/05 01:35:39;;;;;;;9.18;5.43;;;;;;;;;;5034049;28;20033;-67
2023/09/05 01:38:04;;;;;;;8.00;5.75;;;;;;;;;;5035158;28;20699;-67
2023/09/05 01:40:30;;;;;;;8.35;5.65;;;;;;;;;;5034214;28;20101;-66
2023/09/05 01:42:55;;;;;;;9.98;5.78;;;;;;;;;;5034766;28;20107;-67
2023/09/05 01:45:21;;;;;;;9.45;6.00;;;;;;;;;;5040767;28;20032;-67
2023/09/05 01:47:46;;;;;;;9.45;5.85;;;;;;;;;;5034814;28;20477;-67
2023/09/05 01:50:12;;;;;;;11.10;6.50;;;;;;;;;;5034099;28;20025;-67
2023/09/05 01:52:37;;;;;;;11.25;6.85;;;;;;;;;;5034476;28;20096;-67
2023/09/05 01:55:02;;;;;;;11.40;7.05;;;;;;;;;;5034563;28;20029;-67
2023/09/05 01:57:28;;;;;;;11.02;6.97;;;;;;;;;;5034156;28;20009;-67
2023/09/05 01:59:53;;;;;;;13.35;7.57;;;;;;;;;;5034890;28;20021;-67
2023/09/05 02:02:18;;;;;;;12.35;7.55;;;;;;;;;;5034760;28;20377;-67
2023/09/05 02:04:43;;;;;;;12.55;7.72;;;;;;;;;;5034265;28;20458;-67
2023/09/05 02:07:09;;;;;;;12.65;7.95;;;;;;;;;;5041055;28;20074;-66
2023/09/05 02:09:35;;;;;;;14.60;7.90;;;;;;;;;;5032937;28;20025;-66
2023/09/05 02:12:00;;;;;;;12.93;8.30;;;;;;;;;;5034006;28;20092;-67
2023/09/05 02:14:25;;;;;;;11.55;8.18;;;;;;;;;;5036458;28;20439;-67
2023/09/05 02:16:51;;;;;;;11.90;7.70;;;;;;;;;;5033935;28;20749;-66
2023/09/05 02:19:17;;;;;;;12.38;7.55;;;;;;;;;;5034253;28;20022;-62
2023/09/05 02:21:42;;;;;;;10.07;7.30;;;;;;;;;;5033372;28;20098;-63
2023/09/05 02:24:07;;;;;;;13.10;7.70;;;;;;;;;;5034032;28;20049;-61
2023/09/05 02:26:32;;;;;;;12.50;7.80;;;;;;;;;;5034083;28;20048;-62
2023/09/05 02:28:58;;;;;;;14.13;7.88;;;;;;;;;;5034190;28;20094;-61
2023/09/05 02:31:24;;;;;;;13.32;8.35;;;;;;;;;;5033616;28;20052;-61
2023/09/05 02:33:49;;;;;;;12.73;8.03;;;;;;;;;;5038031;28;20095;-62
2023/09/05 02:36:18;;;;;;;12.05;7.88;;;;;;;;;;5033303;28;20166;-61
2023/09/05 02:38:44;;;;;;;10.88;7.95;;;;;;;;;;5033836;28;20113;-61
2023/09/05 02:41:16;;;;;;;14.07;8.50;;;;;;;;;;5029958;28;20565;-61
2023/09/05 02:43:41;;;;;;;14.65;8.93;;;;;;;;;;5033664;28;20056;-61
2023/09/05 02:46:07;;;;;;;14.03;9.47;;;;;;;;;;5033997;28;20060;-61
2023/09/05 02:48:35;;;;;;;19.17;9.40;;;;;;;;;;5034009;28;20017;-61
2023/09/05 02:51:04;;;;;;;15.90;10.07;;;;;;;;;;5029900;28;20527;-61
2023/09/05 02:53:29;;;;;;;16.43;10.37;;;;;;;;;;5033591;28;20030;-61
2023/09/05 02:55:54;;;;;;;13.13;9.00;;;;;;;;;;5033125;28;20449;-61
2023/09/05 02:58:20;;;;;;;11.80;8.85;;;;;;;;;;5033679;28;20041;-61
2023/09/05 03:00:49;;;;;;;15.50;8.67;;;;;;;;;;5033448;28;20104;-61
2023/09/05 03:03:14;;;;;;;11.45;8.05;;;;;;;;;;5033157;28;20370;-61
2023/09/05 03:05:39;;;;;;;13.97;8.70;;;;;;;;;;5033318;28;20037;-62
2023/09/05 03:08:06;;;;;;;15.27;9.80;;;;;;;;;;5033193;28;20108;-62
2023/09/05 03:10:31;;;;;;;18.63;9.37;;;;;;;;;;5033251;28;20472;-62
2023/09/05 03:12:56;;;;;;;15.27;10.27;;;;;;;;;;5032939;28;20067;-61
2023/09/05 03:15:23;;;;;;;14.83;10.43;;;;;;;;;;5035455;28;20086;-61
2023/09/05 03:17:48;;;;;;;17.07;11.13;;;;;;;;;;5033366;28;20026;-62
2023/09/05 03:20:15;;;;;;;16.37;11.10;;;;;;;;;;5032899;28;20052;-62
2023/09/05 03:22:41;;;;;;;17.17;10.67;;;;;;;;;;5030787;28;20029;-62
2023/09/05 03:25:06;;;;;;;15.00;10.50;;;;;;;;;;5032748;28;20429;-61
2023/09/05 03:27:31;;;;;;;16.00;11.30;;;;;;;;;;5032646;28;20026;-62
2023/09/05 03:29:56;;;;;;;20.57;10.77;;;;;;;;;;5034060;28;20064;-67
2023/09/05 03:32:22;;;;;;;17.73;11.60;;;;;;;;;;5032321;28;20029;-66
2023/09/05 03:34:48;;;;;;;19.00;12.63;;;;;;;;;;5033328;28;20025;-67
2023/09/05 03:37:14;;;;;;;19.00;12.67;;;;;;;;;;5034453;28;20128;-67
2023/09/05 03:39:39;;;;;;;19.87;12.23;;;;;;;;;;5032507;28;20117;-67
2023/09/05 03:42:04;;;;;;;19.33;12.47;;;;;;;;;;5032249;28;20029;-67
2023/09/05 03:44:29;;;;;;;18.47;12.20;;;;;;;;;;5032801;28;20080;-67
2023/09/05 03:46:55;;;;;;;19.33;12.17;;;;;;;;;;5032662;28;20022;-67
2023/09/05 03:49:20;;;;;;;16.33;11.60;;;;;;;;;;5032590;28;20035;-67
2023/09/05 03:51:45;;;;;;;20.47;12.40;;;;;;;;;;5035282;28;20045;-67
2023/09/05 03:54:12;;;;;;;23.73;13.13;;;;;;;;;;5031896;28;20025;-67
2023/09/05 03:56:38;;;;;;;29.73;14.13;;;;;;;;;;5031649;28;20060;-67
2023/09/05 03:59:03;;;;;;;29.30;15.07;;;;;;;;;;5032410;28;20029;-67
2023/09/05 04:01:28;;;;;;;25.87;15.03;;;;;;;;;;5032089;28;20451;-67
2023/09/05 04:03:53;;;;;;;24.80;13.93;;;;;;;;;;5032498;28;20045;-67
2023/09/05 04:06:19;;;;;;;20.93;13.20;;;;;;;;;;5032292;28;20087;-68
2023/09/05 04:08:44;;;;;;;18.53;12.10;;;;;;;;;;5037097;28;20083;-67
2023/09/05 04:11:09;;;;;;;26.57;11.73;;;;;;;;;;5032338;28;20096;-67
2023/09/05 04:13:35;;;;;;;20.97;11.27;;;;;;;;;;5032389;28;20033;-67
2023/09/05 04:16:06;;;;;;;18.77;11.90;;;;;;;;;;5031163;28;20432;-67
2023/09/05 04:18:31;;;;;;;;;;;;;;;;;;5032448;28;20029;-67
2023/09/05 04:21:00;;;;;;;18.56;12.92;;;;;;;;;;5032404;28;20298;-67
2023/09/05 04:23:25;;;;;;;20.77;14.07;;;;;;;;;;5031888;28;20017;-67
2023/09/05 04:25:58;;;;;;;24.13;12.97;;;;;;;;;;5031608;28;20022;-68
2023/09/05 04:28:24;;;;;;;20.13;12.57;;;;;;;;;;5031562;28;20018;-68
2023/09/05 04:30:49;;;;;;;16.47;10.97;;;;;;;;;;5031115;28;20532;-67
2023/09/05 04:33:14;;;;;;;20.33;13.97;;;;;;;;;;5031330;28;20113;-67
2023/09/05 04:35:39;;;;;;;20.67;13.57;;;;;;;;;;5031549;28;20029;-67
2023/09/05 04:38:05;;;;;;;21.43;13.97;;;;;;;;;;5031105;28;20028;-67
2023/09/05 04:40:30;;;;;;;20.87;12.93;;;;;;;;;;5031662;28;20029;-62
2023/09/05 04:42:56;;;;;;;24.10;14.03;;;;;;;;;;5031167;28;20021;-62
2023/09/05 04:45:21;;;;;;;34.60;15.17;;;;;;;;;;5031975;28;20013;-62
2023/09/05 04:47:46;;;;;;;23.17;13.07;;;;;;;;;;5031997;28;20021;-61
2023/09/05 04:50:11;;;;;;;21.93;13.20;;;;;;;;;;5026645;28;20036;-62
2023/09/05 04:52:37;;;;;;;20.43;13.53;;;;;;;;;;5027723;28;20032;-61
2023/09/05 04:55:02;;;;;;;20.60;12.93;;;;;;;;;;5029580;28;20021;-61
2023/09/05 04:57:28;;;;;;;16.83;12.40;;;;;;;;;;5032049;28;20047;-61
2023/09/05 04:59:59;;;;;;;18.50;11.80;;;;;;;;;;5030156;28;20022;-61
2023/09/05 05:02:25;;;;;;;16.48;11.38;;;;;;;;;;5033499;28;20035;-62
2023/09/05 05:04:51;;;;;;;16.83;11.10;;;;;;;;;;5033888;28;20034;-62
2023/09/05 05:07:16;;;;;;;15.60;10.90;;;;;;;;;;5031819;28;20160;-62
2023/09/05 05:09:42;;;;;;;14.57;9.67;;;;;;;;;;5031497;28;20033;-62
2023/09/05 05:12:07;;;;;;;15.03;9.90;;;;;;;;;;5031683;28;20377;-62
2023/09/05 05:14:33;;;;;;;14.07;9.30;;;;;;;;;;5035291;28;20049;-62
2023/09/05 05:16:58;;;;;;;13.75;8.88;;;;;;;;;;5035047;28;20415;-61
2023/09/05 05:19:23;;;;;;;10.20;7.13;;;;;;;;;;5034087;28;20456;-61
2023/09/05 05:21:49;;;;;;;11.02;6.47;;;;;;;;;;5035452;28;20417;-60
2023/09/05 05:24:14;;;;;;;9.48;5.95;;;;;;;;;;5031392;28;20016;-61
2023/09/05 05:26:40;;;;;;;8.15;5.20;;;;;;;;;;5031020;28;20032;-61
2023/09/05 05:29:06;;;;;;;8.90;5.15;;;;;;;;;;5031773;28;20075;-61
2023/09/05 05:31:32;;;;;;;7.78;5.03;;;;;;;;;;5030378;28;20026;-61
2023/09/05 05:33:57;;;;;;;12.00;4.60;;;;;;;;;;5031239;28;20088;-60
2023/09/05 05:36:23;;;;;;;7.40;4.70;;;;;;;;;;5031518;28;20439;-61
2023/09/05 05:38:49;;;;;;;8.98;4.60;;;;;;;;;;5031380;28;20087;-60
2023/09/05 05:41:14;;;;;;;8.13;4.63;;;;;;;;;;5031731;28;20121;-60
2023/09/05 05:43:40;;;;;;;10.13;4.93;;;;;;;;;;5034808;28;20024;-60
2023/09/05 05:46:05;;;;;;;9.80;4.25;;;;;;;;;;5038932;28;20429;-60
2023/09/05 05:48:30;;;;;;;7.93;3.88;;;;;;;;;;5035907;28;20021;-59
2023/09/05 05:50:58;;;;;;;7.65;4.05;;;;;;;;;;5036373;28;20025;-58
2023/09/05 05:53:24;;;;;;;7.95;4.22;;;;;;;;;;5036030;28;20030;-59
2023/09/05 05:55:49;;;;;;;8.30;3.97;;;;;;;;;;5035878;28;20029;-58
2023/09/05 05:58:15;;;;;;;8.77;3.92;;;;;;;;;;5035743;28;20029;-58
2023/09/05 06:00:45;;;;;;;8.73;4.20;;;;;;;;;;5035766;28;20079;-59
2023/09/05 06:03:11;;;;;;;9.15;4.13;;;;;;;;;;5035347;28;20024;-58
2023/09/05 06:05:36;;;;;;;7.65;3.85;;;;;;;;;;5035576;28;20104;-58
2023/09/05 06:08:02;;;;;;;6.80;3.60;;;;;;;;;;5037747;28;20064;-58
2023/09/05 06:10:27;;;;;;;6.45;3.28;;;;;;;;;;5035498;28;20064;-59
2023/09/05 06:12:52;;;;;;;6.82;3.78;;;;;;;;;;5034702;28;20040;-58
2023/09/05 06:15:18;;;;;;;8.98;3.72;;;;;;;;;;5034970;28;20092;-58
2023/09/05 06:17:43;;;;;;;9.90;3.80;;;;;;;;;;5033864;28;20037;-58
2023/09/05 06:20:09;;;;;;;6.43;3.55;;;;;;;;;;5035333;28;20026;-57
2023/09/05 06:22:34;;;;;;;7.20;3.72;;;;;;;;;;5035740;28;20497;-58
2023/09/05 06:25:01;;;;;;;6.57;2.88;;;;;;;;;;5035520;28;20469;-59
2023/09/05 06:27:27;;;;;;;5.07;2.72;;;;;;;;;;5035684;28;20382;-58
2023/09/05 06:29:52;;;;;;;4.95;2.92;;;;;;;;;;5035232;28;20014;-58
2023/09/05 06:32:17;;;;;;;4.82;2.88;;;;;;;;;;5035611;28;20025;-58
2023/09/05 06:34:42;;;;;;;8.13;3.00;;;;;;;;;;5036157;28;20484;-58
2023/09/05 06:37:08;;;;;;;5.85;2.90;;;;;;;;;;5035139;28;20021;-58
2023/09/05 06:39:34;;;;;;;5.15;2.92;;;;;;;;;;5034868;28;20428;-58
2023/09/05 06:41:59;;;;;;;4.93;2.80;;;;;;;;;;5035425;28;20020;-58
2023/09/05 06:44:27;;;;;;;5.45;2.85;;;;;;;;;;5034748;28;20022;-59
2023/09/05 06:46:53;;;;;;;4.75;2.60;;;;;;;;;;5035255;28;20108;-59
2023/09/05 06:49:18;;;;;;;4.32;2.40;;;;;;;;;;5035279;28;20045;-57
2023/09/05 06:51:43;;;;;;;6.47;2.97;;;;;;;;;;5015466;28;20022;-58
2023/09/05 06:54:08;;;;;;;8.45;2.80;;;;;;;;;;5014740;28;20029;-57
2023/09/05 06:56:33;;;;;;;5.07;2.67;;;;;;;;;;5014840;28;20118;-58
2023/09/05 06:58:59;;;;;;;5.88;3.10;;;;;;;;;;5013781;28;20075;-58
2023/09/05 07:01:24;;;;;;;4.47;2.38;;;;;;;;;;5015282;28;20022;-64
2023/09/05 07:03:50;;;;;;;4.60;2.13;;;;;;;;;;5034021;28;20120;-64
2023/09/05 07:06:18;;;;;;;6.20;2.60;;;;;;;;;;5034573;28;20381;-64
2023/09/05 07:08:43;;;;;;;6.07;2.50;;;;;;;;;;5033385;28;20102;-64
2023/09/05 07:11:10;;;;;;;5.30;2.30;;;;;;;;;;5034420;28;20048;-64
2023/09/05 07:13:35;;;;;;;4.18;2.22;;;;;;;;;;5037078;28;20030;-65
2023/09/05 07:16:01;;;;;;;6.43;2.28;;;;;;;;;;5035542;28;20108;-65
2023/09/05 07:18:26;;;;;;;5.65;2.22;;;;;;;;;;5034351;28;20029;-64
2023/09/05 07:20:51;;;;;;;4.60;2.05;;;;;;;;;;5034473;28;20079;-66
2023/09/05 07:23:17;;;;;;;4.88;2.20;;;;;;;;;;5034297;28;20014;-66
2023/09/05 07:25:42;;;;;;;5.40;2.13;;;;;;;;;;5033486;28;20056;-67
2023/09/05 07:28:07;;;;;;;6.70;2.10;;;;;;;;;;5034440;28;20045;-65
2023/09/05 07:30:32;;;;;;;4.60;1.90;;;;;;;;;;5039296;28;20021;-65
2023/09/05 07:32:59;;;;;;;4.22;1.98;;;;;;;;;;5041003;28;20045;-66
2023/09/05 07:35:24;;;;;;;5.05;2.10;;;;;;;;;;5034394;28;20374;-66
2023/09/05 07:37:50;;;;;;;8.73;2.20;;;;;;;;;;5034102;28;20033;-65
2023/09/05 07:40:15;;;;;;;4.00;1.95;;;;;;;;;;5034110;28;20026;-65
2023/09/05 07:42:42;;;;;;;3.75;1.90;;;;;;;;;;5033991;28;20025;-64
2023/09/05 07:45:07;;;;;;;5.80;1.80;;;;;;;;;;5034085;28;20048;-65
2023/09/05 07:47:33;;;;;;;4.57;1.90;;;;;;;;;;5036643;28;20049;-64
2023/09/05 07:49:59;;;;;;;3.78;1.70;;;;;;;;;;5033999;28;20031;-65
2023/09/05 07:52:24;;;;;;;4.45;1.75;;;;;;;;;;5034063;28;20495;-65
2023/09/05 07:54:49;;;;;;;5.22;1.80;;;;;;;;;;5033579;28;20072;-65
2023/09/05 07:57:17;;;;;;;3.70;1.58;;;;;;;;;;5033578;28;20017;-65
2023/09/05 07:59:42;;;;;;;3.33;1.58;;;;;;;;;;5033627;28;20076;-65
2023/09/05 08:02:10;;;;;;;6.43;1.40;;;;;;;;;;5033889;28;20021;-66
2023/09/05 08:04:37;;;;;;;5.68;1.77;;;;;;;;;;5032754;28;20091;-64
2023/09/05 08:07:02;;;;;;;5.40;1.85;;;;;;;;;;5034878;28;20029;-65
2023/09/05 08:09:27;;;;;;;3.78;1.33;;;;;;;;;;5033590;28;20021;-65
2023/09/05 08:11:52;;;;;;;4.40;1.57;;;;;;;;;;5033890;28;20108;-58
2023/09/05 08:14:18;;;;;;;4.47;1.50;;;;;;;;;;5033742;28;20256;-59
2023/09/05 08:16:43;;;;;;;4.35;1.33;;;;;;;;;;5033580;28;20334;-59
2023/09/05 08:19:08;;;;;;;3.92;1.35;;;;;;;;;;5033250;28;20036;-59
2023/09/05 08:21:33;;;;;;;3.83;1.30;;;;;;;;;;5033304;28;20041;-66
2023/09/05 08:23:59;;;;;;;4.88;1.50;;;;;;;;;;5033158;28;20260;-66
2023/09/05 08:26:25;;;;;;;4.43;1.35;;;;;;;;;;5033290;28;20091;-66
2023/09/05 08:28:51;;;;;;;2.60;1.33;;;;;;;;;;5033543;28;20060;-66
2023/09/05 08:31:16;;;;;;;2.92;1.38;;;;;;;;;;5033071;28;20021;-60
2023/09/05 08:33:42;;;;;;;3.70;1.42;;;;;;;;;;5032982;28;20021;-58
2023/09/05 08:36:09;;;;;;;2.72;1.30;;;;;;;;;;5033510;28;20454;-58
2023/09/05 08:38:37;;;;;;;5.15;1.40;;;;;;;;;;5032875;28;20033;-59
2023/09/05 08:41:03;;;;;;;3.35;1.40;;;;;;;;;;5033234;28;20541;-59
2023/09/05 08:43:28;;;;;;;4.05;1.25;;;;;;;;;;5015244;28;20101;-59
2023/09/05 08:45:54;;;;;;;5.22;1.50;;;;;;;;;;5031716;28;20017;-58
2023/09/05 08:48:19;;;;;;;5.35;1.60;;;;;;;;;;5033081;28;20032;-59
2023/09/05 08:50:45;;;;;;;3.63;1.30;;;;;;;;;;5033302;28;20025;-60
2023/09/05 08:53:14;;;;;;;4.65;1.35;;;;;;;;;;5033139;28;20389;-60
2023/09/05 08:55:40;;;;;;;3.28;1.20;;;;;;;;;;5033261;28;20395;-60
2023/09/05 08:58:07;;;;;;;2.42;1.27;;;;;;;;;;5033216;28;20025;-59
2023/09/05 09:00:34;;;;;;;4.53;1.40;;;;;;;;;;5032951;28;20021;-59
2023/09/05 09:03:00;;;;;;;4.95;1.25;;;;;;;;;;5032726;28;20462;-60
2023/09/05 09:05:25;;;;;;;6.50;1.17;;;;;;;;;;5032938;28;20026;-59
2023/09/05 09:07:54;;;;;;;2.60;1.20;;;;;;;;;;5033174;28;20021;-60
2023/09/05 09:10:20;;;;;;;7.38;1.45;;;;;;;;;;5033020;28;20025;-60
2023/09/05 09:12:46;;;;;;;2.70;1.20;;;;;;;;;;5032993;28;20014;-60
2023/09/05 09:15:12;;;;;;;2.58;1.10;;;;;;;;;;5035521;28;20343;-60
2023/09/05 09:17:41;;;;;;;4.88;1.35;;;;;;;;;;5033277;28;20033;-60
2023/09/05 09:20:09;;;;;;;3.10;1.25;;;;;;;;;;5036135;28;20014;-60
2023/09/05 09:22:35;;;;;;;3.88;1.10;;;;;;;;;;5041625;28;20013;-59
2023/09/05 09:25:08;;;;;;;4.47;1.27;;;;;;;;;;5052122;28;20025;-59
2023/09/05 09:27:33;;;;;;;4.40;1.20;;;;;;;;;;5035355;28;20021;-61
2023/09/05 09:29:58;;;;;;;2.70;1.27;;;;;;;;;;5035851;28;20028;-60
2023/09/05 09:32:24;;;;;;;2.67;1.10;;;;;;;;;;5036026;28;20276;-60
2023/09/05 09:34:50;;;;;;;5.07;1.30;;;;;;;;;;5036629;28;20268;-60
2023/09/05 09:37:25;;;;;;;3.35;1.33;;;;;;;;;;5036449;28;20124;-61
2023/09/05 09:40:00;;;;;;;2.15;1.00;;;;;;;;;;5036380;28;20018;-60
2023/09/05 09:42:26;;;;;;;4.55;1.35;;;;;;;;;;5036863;28;20151;-60
2023/09/05 09:44:52;;;;;;;2.85;1.00;;;;;;;;;;5036401;28;20096;-60
2023/09/05 09:47:17;;;;;;;3.67;1.30;;;;;;;;;;5036370;28;20567;-60
2023/09/05 09:49:46;;;;;;;3.25;1.30;;;;;;;;;;5035816;28;20060;-62
2023/09/05 09:52:12;;;;;;;3.67;1.30;;;;;;;;;;5036113;28;20555;-60
2023/09/05 09:54:38;;;;;;;4.18;1.58;;;;;;;;;;5038622;28;20021;-59
2023/09/05 09:57:04;;;;;;;2.90;1.20;;;;;;;;;;5036156;28;20025;-60
2023/09/05 09:59:35;;;;;;;6.15;1.27;;;;;;;;;;5035958;28;20076;-60
2023/09/05 10:02:08;;;;;;;3.03;1.05;;;;;;;;;;5035964;28;20022;-60
2023/09/05 10:04:35;;;;;;;3.55;1.20;;;;;;;;;;5034722;28;20515;-60
2023/09/05 10:07:05;;;;;;;2.38;1.00;;;;;;;;;;5035838;28;20026;-59
2023/09/05 10:09:30;;;;;;;2.75;1.02;;;;;;;;;;5035845;28;20055;-61
2023/09/05 10:11:57;;;;;;;3.72;1.02;;;;;;;;;;5035815;28;20093;-61
2023/09/05 10:14:23;;;;;;;3.72;1.08;;;;;;;;;;5042333;28;20090;-61
2023/09/05 10:16:48;;;;;;;2.17;1.13;;;;;;;;;;5035448;28;20041;-63
2023/09/05 10:19:16;;;;;;;2.40;1.10;;;;;;;;;;5035801;28;20018;-63
2023/09/05 10:21:41;;;;;;;3.85;1.17;;;;;;;;;;5035646;28;20492;-63
2023/09/05 10:24:07;;;;;;;2.90;1.40;;;;;;;;;;5035507;28;20017;-66
2023/09/05 10:26:33;;;;;;;3.33;1.15;;;;;;;;;;5035335;28;20104;-64
2023/09/05 10:28:58;;;;;;;3.88;1.10;;;;;;;;;;5034180;28;20108;-64
2023/09/05 10:31:24;;;;;;;2.67;1.08;;;;;;;;;;5034566;28;20075;-65
2023/09/05 10:33:52;;;;;;;3.20;1.30;;;;;;;;;;5035199;28;20040;-65
2023/09/05 10:36:46;;;;;;;2.33;1.00;;;;;;;;;;5035348;28;20488;-65
2023/09/05 10:39:18;;;;;;;3.10;1.20;;;;;;;;;;5033004;28;20083;-64
2023/09/05 10:41:43;;;;;;;4.78;1.20;;;;;;;;;;5034834;28;20105;-66
2023/09/05 10:44:09;;;;;;;2.90;1.23;;;;;;;;;;5035055;28;20057;-63
2023/09/05 10:46:34;;;;;;;4.25;1.30;;;;;;;;;;5036966;28;20079;-65
2023/09/05 10:49:20;;;;;;;2.67;1.10;;;;;;;;;;5035262;28;20060;-66
2023/09/05 10:52:03;;;;;;;3.63;1.20;;;;;;;;;;5034066;28;20061;-67
2023/09/05 10:54:29;;;;;;;4.28;1.38;;;;;;;;;;5035200;28;20025;-64
2023/09/05 10:56:55;;;;;;;4.93;1.50;;;;;;;;;;5034597;28;20101;-67
2023/09/05 10:59:27;;;;;;;4.50;1.58;;;;;;;;;;5034817;28;20053;-64
2023/09/05 11:01:56;;;;;;;3.28;1.52;;;;;;;;;;5034854;28;20531;-63
2023/09/05 11:04:26;;;;;;;3.10;1.27;;;;;;;;;;5034330;28;20029;-67
2023/09/05 11:06:55;;;;;;;4.05;1.45;;;;;;;;;;5037491;28;20056;-64
2023/09/05 11:09:21;;;;;;;3.30;1.30;;;;;;;;;;5034940;28;20370;-64
2023/09/05 11:11:46;;;;;;;4.47;1.30;;;;;;;;;;5034600;28;20032;-65
2023/09/05 11:14:11;;;;;;;2.35;1.25;;;;;;;;;;5034049;28;20089;-64
2023/09/05 11:16:47;;;;;;;3.13;1.25;;;;;;;;;;5034687;28;20034;-66
2023/09/05 11:19:12;;;;;;;4.75;1.70;;;;;;;;;;5034432;28;20021;-64
2023/09/05 11:21:37;;;;;;;3.85;1.40;;;;;;;;;;5035477;28;20082;-65
2023/09/05 11:24:02;;;;;;;4.70;1.58;;;;;;;;;;5034035;28;20096;-65
2023/09/05 11:26:28;;;;;;;6.93;1.90;;;;;;;;;;5034287;28;20391;-64
2023/09/05 11:28:54;;;;;;;3.42;1.30;;;;;;;;;;5031579;28;20029;-69
2023/09/05 11:31:21;;;;;;;3.78;1.50;;;;;;;;;;5034040;28;20025;-65
2023/09/05 11:33:47;;;;;;;3.05;1.48;;;;;;;;;;5033998;28;20029;-65
2023/09/05 11:36:13;;;;;;;4.82;1.40;;;;;;;;;;5034468;28;20017;-65
2023/09/05 11:38:50;;;;;;;2.50;1.30;;;;;;;;;;5033422;28;21933;-69
2023/09/05 11:41:16;;;;;;;3.60;1.30;;;;;;;;;;5037130;28;20482;-65
2023/09/05 11:43:49;;;;;;;3.35;1.40;;;;;;;;;;5034188;28;20039;-66
2023/09/05 11:46:15;;;;;;;2.92;1.25;;;;;;;;;;5034074;28;20485;-67
2023/09/05 11:48:44;;;;;;;3.88;1.50;;;;;;;;;;5033625;28;20877;-65
2023/09/05 11:51:10;;;;;;;3.13;1.30;;;;;;;;;;5033890;28;20079;-67
2023/09/05 11:53:36;;;;;;;6.70;1.35;;;;;;;;;;5036258;28;20056;-66
2023/09/05 11:56:02;;;;;;;2.55;1.15;;;;;;;;;;5034152;28;20378;-66
2023/09/05 11:58:28;;;;;;;5.75;1.50;;;;;;;;;;5033845;28;20017;-67
2023/09/05 12:00:54;;;;;;;4.18;1.40;;;;;;;;;;5034047;28;20068;-72
2023/09/05 12:03:20;;;;;;;2.95;1.25;;;;;;;;;;5033740;28;20038;-71
2023/09/05 12:05:48;;;;;;;3.58;1.10;;;;;;;;;;5035931;28;20049;-72
2023/09/05 12:08:17;;;;;;;2.28;1.05;;;;;;;;;;5032838;28;20527;-73
2023/09/05 12:11:01;;;;;;;4.68;1.13;;;;;;;;;;5033621;28;20422;-74
2023/09/05 12:13:40;;;;;;;5.07;1.30;;;;;;;;;;5033409;28;20053;-72
2023/09/05 12:16:09;;;;;;;2.45;1.00;;;;;;;;;;5033339;28;20026;-74
2023/09/05 12:18:34;;;;;;;2.40;0.93;;;;;;;;;;5033152;28;20061;-74
2023/09/05 12:21:02;;;;;;;5.03;1.63;;;;;;;;;;5033242;28;20076;-73
2023/09/05 12:23:28;;;;;;;3.53;1.20;;;;;;;;;;5033266;28;20104;-75
2023/09/05 12:25:57;;;;;;;6.45;1.10;;;;;;;;;;5033624;28;20037;-75
2023/09/05 12:28:25;;;;;;;2.30;1.00;;;;;;;;;;5033099;28;20033;-72
2023/09/05 12:30:53;;;;;;;2.10;0.95;;;;;;;;;;5033473;28;20106;-74
2023/09/05 12:33:19;;;;;;;2.25;0.88;;;;;;;;;;5033097;28;20025;-73
2023/09/05 12:35:44;;;;;;;3.63;1.10;;;;;;;;;;5033459;28;20029;-75
2023/09/05 12:38:12;;;;;;;2.95;1.00;;;;;;;;;;5033076;28;20021;-74
2023/09/05 12:40:38;;;;;;;3.30;1.00;;;;;;;;;;5032929;28;20013;-74
2023/09/05 12:43:04;;;;;;;4.45;0.90;;;;;;;;;;5033309;28;20351;-75
2023/09/05 12:45:31;;;;;;;3.63;1.00;;;;;;;;;;5032885;28;20469;-75
2023/09/05 12:47:56;;;;;;;2.50;0.80;;;;;;;;;;5033166;28;20442;-74
2023/09/05 12:50:36;;;;;;;2.13;1.00;;;;;;;;;;5037614;28;20049;-76
2023/09/05 12:53:01;;;;;;;2.65;1.00;;;;;;;;;;5032030;28;20103;-75
2023/09/05 12:55:27;;;;;;;2.58;1.00;;;;;;;;;;5033064;28;20025;-76
2023/09/05 12:57:53;;;;;;;2.72;1.02;;;;;;;;;;5032677;28;20474;-74
2023/09/05 13:00:19;;;;;;;2.22;0.90;;;;;;;;;;5035914;28;20049;-77
2023/09/05 13:02:44;;;;;;;2.20;1.00;;;;;;;;;;5033145;28;20455;-77
2023/09/05 13:05:10;;;;;;;3.67;1.10;;;;;;;;;;5032533;28;20045;-77
2023/09/05 13:07:35;;;;;;;4.15;1.02;;;;;;;;;;5032855;28;20385;-78
2023/09/05 13:10:00;;;;;;;3.85;1.10;;;;;;;;;;5032668;28;20032;-77
2023/09/05 13:12:26;;;;;;;2.38;1.00;;;;;;;;;;5032334;28;20445;-75
2023/09/05 13:14:51;;;;;;;4.05;0.93;;;;;;;;;;5032784;28;20033;-76
2023/09/05 13:17:16;;;;;;;3.15;1.00;;;;;;;;;;5032795;28;20042;-74
2023/09/05 13:19:42;;;;;;;3.60;1.10;;;;;;;;;;5032674;28;20055;-75
2023/09/05 13:22:07;;;;;;;2.88;0.93;;;;;;;;;;5033986;28;20093;-78
2023/09/05 13:24:32;;;;;;;3.72;1.00;;;;;;;;;;5032939;28;20017;-74
2023/09/05 13:26:59;;;;;;;3.22;1.20;;;;;;;;;;5032779;28;20045;-78
2023/09/05 13:29:25;;;;;;;3.67;0.88;;;;;;;;;;5031273;28;20485;-70
2023/09/05 13:31:50;;;;;;;4.93;1.10;;;;;;;;;;5032603;28;20018;-72
2023/09/05 13:34:16;;;;;;;4.88;1.13;;;;;;;;;;5032878;28;20021;-71
2023/09/05 13:36:41;;;;;;;2.53;1.13;;;;;;;;;;5032405;28;20025;-75
2023/09/05 13:39:06;;;;;;;2.17;1.00;;;;;;;;;;5031608;28;20075;-69
2023/09/05 13:41:32;;;;;;;2.53;1.00;;;;;;;;;;5031378;28;20017;-74
2023/09/05 13:43:58;;;;;;;2.25;1.00;;;;;;;;;;5032704;28;20497;-71
2023/09/05 13:46:23;;;;;;;3.72;1.00;;;;;;;;;;5033095;28;20021;-73
2023/09/05 13:48:48;;;;;;;2.25;0.93;;;;;;;;;;5041297;28;20040;-72
2023/09/05 13:51:21;;;;;;;6.10;1.00;;;;;;;;;;5039647;28;20063;-72
2023/09/05 13:53:47;;;;;;;3.25;1.10;;;;;;;;;;5036013;28;20473;-71
2023/09/05 13:56:12;;;;;;;2.17;1.00;;;;;;;;;;5032435;28;20049;-71
2023/09/05 13:58:37;;;;;;;6.40;1.30;;;;;;;;;;5032710;28;20112;-72
2023/09/05 14:01:03;;;;;;;2.72;1.05;;;;;;;;;;5032641;28;20104;-71
2023/09/05 14:03:29;;;;;;;2.42;1.10;;;;;;;;;;5032333;28;20593;-76
2023/09/05 14:05:55;;;;;;;3.22;1.00;;;;;;;;;;5034837;28;20059;-71
2023/09/05 14:08:20;;;;;;;2.80;1.20;;;;;;;;;;5036280;28;20041;-70
2023/09/05 14:10:47;;;;;;;4.68;1.10;;;;;;;;;;5036521;28;20024;-72
2023/09/05 14:13:12;;;;;;;2.38;1.00;;;;;;;;;;5034955;28;20430;-74
2023/09/05 14:15:38;;;;;;;2.78;1.10;;;;;;;;;;5035693;28;20021;-72
2023/09/05 14:18:03;;;;;;;2.03;0.80;;;;;;;;;;5036031;28;20091;-71
2023/09/05 14:20:29;;;;;;;5.55;1.00;;;;;;;;;;5035820;28;20051;-70
2023/09/05 14:22:54;;;;;;;2.00;0.85;;;;;;;;;;5036286;28;20014;-74
2023/09/05 14:25:19;;;;;;;1.75;0.82;;;;;;;;;;5035556;28;20013;-70
2023/09/05 14:27:45;;;;;;;4.63;0.90;;;;;;;;;;5035436;28;20032;-70
2023/09/05 14:30:10;;;;;;;3.13;0.90;;;;;;;;;;5035859;28;20620;-70
2023/09/05 14:32:35;;;;;;;3.10;0.82;;;;;;;;;;5035451;28;20026;-72
2023/09/05 14:35:01;;;;;;;2.33;0.85;;;;;;;;;;5035749;28;20029;-71
2023/09/05 14:37:26;;;;;;;2.50;0.95;;;;;;;;;;5035454;28;20512;-69